sensor_id;sensor_type;location;lat;lon;timestamp;pressure;altitude;pressure_sealevel;temperature;humidity
14117;BME280;7137;51.436;6.544;2022-07-10T00:00:54;102267.28;;;16.38;68.36
14117;BME280;7137;51.436;6.544;2022-07-10T00:03:56;102261.25;;;16.35;68.95
14117;BME280;7137;51.436;6.544;2022-07-10T00:06:57;102268.78;;;16.45;67.55
14117;BME280;7137;51.436;6.544;2022-07-10T00:10:00;102264.75;;;16.35;67.53
14117;BME280;7137;51.436;6.544;2022-07-10T00:13:02;102272.72;;;16.32;67.33
14117;BME280;7137;51.436;6.544;2022-07-10T00:16:04;102266.31;;;16.41;68.00
14117;BME280;7137;51.436;6.544;2022-07-10T00:19:06;102270.00;;;16.35;68.80
14117;BME280;7137;51.436;6.544;2022-07-10T00:22:07;102262.31;;;16.27;70.01
14117;BME280;7137;51.436;6.544;2022-07-10T00:25:12;102267.16;;;16.41;69.85
14117;BME280;7137;51.436;6.544;2022-07-10T00:28:13;102267.41;;;16.33;68.85
14117;BME280;7137;51.436;6.544;2022-07-10T00:31:15;102259.78;;;16.24;68.99
14117;BME280;7137;51.436;6.544;2022-07-10T00:34:17;102268.75;;;16.17;69.17
14117;BME280;7137;51.436;6.544;2022-07-10T00:37:19;102265.09;;;15.93;69.66
14117;BME280;7137;51.436;6.544;2022-07-10T00:40:23;102254.25;;;16.02;69.61
14117;BME280;7137;51.436;6.544;2022-07-10T00:43:25;102254.47;;;15.96;71.52
14117;BME280;7137;51.436;6.544;2022-07-10T00:46:28;102252.63;;;15.98;70.34
14117;BME280;7137;51.436;6.544;2022-07-10T00:49:30;102250.25;;;16.20;70.92
14117;BME280;7137;51.436;6.544;2022-07-10T00:52:31;102248.97;;;16.33;70.08
14117;BME280;7137;51.436;6.544;2022-07-10T00:55:37;102248.97;;;16.33;70.39
14117;BME280;7137;51.436;6.544;2022-07-10T00:58:40;102253.94;;;16.43;68.02
14117;BME280;7137;51.436;6.544;2022-07-10T01:01:42;102249.66;;;16.39;69.34
14117;BME280;7137;51.436;6.544;2022-07-10T01:04:43;102237.78;;;16.53;68.82
14117;BME280;7137;51.436;6.544;2022-07-10T01:07:45;102237.78;;;16.53;67.83
14117;BME280;7137;51.436;6.544;2022-07-10T01:10:48;102235.41;;;16.44;68.63
14117;BME280;7137;51.436;6.544;2022-07-10T01:13:50;102230.50;;;16.32;70.07
14117;BME280;7137;51.436;6.544;2022-07-10T01:16:52;102239.28;;;16.32;68.53
14117;BME280;7137;51.436;6.544;2022-07-10T01:19:54;102226.25;;;16.28;70.05
14117;BME280;7137;51.436;6.544;2022-07-10T01:22:57;102218.44;;;16.25;69.46
14117;BME280;7137;51.436;6.544;2022-07-10T01:25:58;102218.28;;;16.29;70.29
14117;BME280;7137;51.436;6.544;2022-07-10T01:29:04;102221.25;;;16.47;69.10
14117;BME280;7137;51.436;6.544;2022-07-10T01:32:06;102222.22;;;16.44;67.26
14117;BME280;7137;51.436;6.544;2022-07-10T01:35:09;102210.44;;;16.56;67.46
14117;BME280;7137;51.436;6.544;2022-07-10T01:38:11;102207.19;;;16.48;68.09
14117;BME280;7137;51.436;6.544;2022-07-10T01:41:13;102204.84;;;16.39;68.24
14117;BME280;7137;51.436;6.544;2022-07-10T01:44:15;102207.13;;;16.21;68.99
14117;BME280;7137;51.436;6.544;2022-07-10T01:47:16;102204.81;;;16.11;69.69
14117;BME280;7137;51.436;6.544;2022-07-10T01:50:18;102208.59;;;16.02;70.89
14117;BME280;7137;51.436;6.544;2022-07-10T01:53:21;102197.72;;;16.13;69.16
14117;BME280;7137;51.436;6.544;2022-07-10T01:56:22;102208.31;;;16.11;70.63
14117;BME280;7137;51.436;6.544;2022-07-10T01:59:24;102203.38;;;16.00;70.68
14117;BME280;7137;51.436;6.544;2022-07-10T02:02:25;102189.53;;;15.94;71.70
14117;BME280;7137;51.436;6.544;2022-07-10T02:05:27;102191.78;;;16.06;72.42
14117;BME280;7137;51.436;6.544;2022-07-10T02:08:29;102190.19;;;16.00;71.47
14117;BME280;7137;51.436;6.544;2022-07-10T02:11:30;102188.59;;;15.95;71.84
14117;BME280;7137;51.436;6.544;2022-07-10T02:14:32;102186.84;;;15.95;71.22
14117;BME280;7137;51.436;6.544;2022-07-10T02:17:33;102178.94;;;15.95;72.26
14117;BME280;7137;51.436;6.544;2022-07-10T02:20:35;102187.69;;;15.96;72.16
14117;BME280;7137;51.436;6.544;2022-07-10T02:23:38;102190.50;;;15.90;73.18
14117;BME280;7137;51.436;6.544;2022-07-10T02:26:41;102186.53;;;15.75;74.16
14117;BME280;7137;51.436;6.544;2022-07-10T02:29:42;102184.06;;;15.70;72.99
14117;BME280;7137;51.436;6.544;2022-07-10T02:32:44;102183.28;;;15.67;73.58
14117;BME280;7137;51.436;6.544;2022-07-10T02:35:45;102182.38;;;15.68;74.53
14117;BME280;7137;51.436;6.544;2022-07-10T02:38:48;102185.44;;;15.84;72.66
14117;BME280;7137;51.436;6.544;2022-07-10T02:41:50;102180.75;;;15.93;72.65
14117;BME280;7137;51.436;6.544;2022-07-10T02:44:51;102178.19;;;15.90;73.87
14117;BME280;7137;51.436;6.544;2022-07-10T02:47:53;102173.38;;;15.75;75.35
14117;BME280;7137;51.436;6.544;2022-07-10T02:50:54;102172.75;;;15.96;71.78
14117;BME280;7137;51.436;6.544;2022-07-10T02:53:57;102174.66;;;15.91;73.99
14117;BME280;7137;51.436;6.544;2022-07-10T02:56:59;102172.66;;;15.70;74.21
14117;BME280;7137;51.436;6.544;2022-07-10T03:00:00;102175.94;;;15.78;74.41
14117;BME280;7137;51.436;6.544;2022-07-10T03:03:02;102177.94;;;15.70;73.59
14117;BME280;7137;51.436;6.544;2022-07-10T03:06:04;102180.69;;;15.34;75.42
14117;BME280;7137;51.436;6.544;2022-07-10T03:09:07;102172.31;;;15.19;76.93
14117;BME280;7137;51.436;6.544;2022-07-10T03:12:08;102178.06;;;15.00;77.93
14117;BME280;7137;51.436;6.544;2022-07-10T03:15:10;102179.88;;;14.98;78.56
14117;BME280;7137;51.436;6.544;2022-07-10T03:18:12;102181.53;;;15.35;76.25
14117;BME280;7137;51.436;6.544;2022-07-10T03:21:13;102178.28;;;15.25;77.17
14117;BME280;7137;51.436;6.544;2022-07-10T03:24:16;102177.56;;;15.19;77.61
14117;BME280;7137;51.436;6.544;2022-07-10T03:27:18;102170.72;;;15.13;77.79
14117;BME280;7137;51.436;6.544;2022-07-10T03:30:19;102168.91;;;15.15;77.73
14117;BME280;7137;51.436;6.544;2022-07-10T03:33:21;102176.38;;;14.98;78.66
14117;BME280;7137;51.436;6.544;2022-07-10T03:36:22;102176.75;;;15.17;76.94
14117;BME280;7137;51.436;6.544;2022-07-10T03:39:25;102176.44;;;15.29;77.46
14117;BME280;7137;51.436;6.544;2022-07-10T03:42:27;102179.25;;;15.23;77.41
14117;BME280;7137;51.436;6.544;2022-07-10T03:45:28;102174.75;;;14.94;80.30
14117;BME280;7137;51.436;6.544;2022-07-10T03:48:30;102177.44;;;14.91;80.23
14117;BME280;7137;51.436;6.544;2022-07-10T03:51:32;102164.53;;;15.14;78.57
14117;BME280;7137;51.436;6.544;2022-07-10T03:54:35;102169.31;;;15.32;77.55
14117;BME280;7137;51.436;6.544;2022-07-10T03:57:37;102174.94;;;15.19;78.78
14117;BME280;7137;51.436;6.544;2022-07-10T04:00:57;102184.38;;;15.27;78.28
14117;BME280;7137;51.436;6.544;2022-07-10T04:03:58;102176.34;;;15.32;78.52
14117;BME280;7137;51.436;6.544;2022-07-10T04:07:00;102166.66;;;15.32;77.83
14117;BME280;7137;51.436;6.544;2022-07-10T04:10:03;102173.06;;;15.55;77.50
14117;BME280;7137;51.436;6.544;2022-07-10T04:13:05;102176.56;;;15.86;74.33
14117;BME280;7137;51.436;6.544;2022-07-10T04:16:07;102173.72;;;15.64;75.35
14117;BME280;7137;51.436;6.544;2022-07-10T04:19:12;102174.63;;;15.63;77.32
14117;BME280;7137;51.436;6.544;2022-07-10T04:22:14;102173.81;;;15.60;76.39
14117;BME280;7137;51.436;6.544;2022-07-10T04:25:17;102170.13;;;15.67;75.78
14117;BME280;7137;51.436;6.544;2022-07-10T04:28:18;102174.16;;;15.79;75.05
14117;BME280;7137;51.436;6.544;2022-07-10T04:31:20;102175.34;;;15.68;77.20
14117;BME280;7137;51.436;6.544;2022-07-10T04:34:21;102183.50;;;15.58;78.24
14117;BME280;7137;51.436;6.544;2022-07-10T04:37:23;102178.47;;;15.81;77.98
14117;BME280;7137;51.436;6.544;2022-07-10T04:40:26;102177.16;;;16.24;74.52
14117;BME280;7137;51.436;6.544;2022-07-10T04:43:29;102174.19;;;16.35;75.01
14117;BME280;7137;51.436;6.544;2022-07-10T04:46:31;102178.13;;;16.49;73.56
14117;BME280;7137;51.436;6.544;2022-07-10T04:49:33;102179.63;;;16.56;72.85
14117;BME280;7137;51.436;6.544;2022-07-10T04:52:35;102170.66;;;16.88;72.58
14117;BME280;7137;51.436;6.544;2022-07-10T04:55:38;102176.44;;;17.00;70.49
14117;BME280;7137;51.436;6.544;2022-07-10T04:58:39;102172.94;;;16.99;71.94
14117;BME280;7137;51.436;6.544;2022-07-10T05:01:41;102171.75;;;16.83;72.85
14117;BME280;7137;51.436;6.544;2022-07-10T05:04:42;102175.13;;;16.86;73.14
14117;BME280;7137;51.436;6.544;2022-07-10T05:07:44;102178.56;;;16.90;72.24
14117;BME280;7137;51.436;6.544;2022-07-10T05:10:47;102171.34;;;17.20;71.16
14117;BME280;7137;51.436;6.544;2022-07-10T05:13:49;102179.00;;;17.51;69.81
14117;BME280;7137;51.436;6.544;2022-07-10T05:16:50;102185.50;;;17.66;68.82
14117;BME280;7137;51.436;6.544;2022-07-10T05:19:52;102184.00;;;17.59;69.24
14117;BME280;7137;51.436;6.544;2022-07-10T05:22:56;102190.94;;;17.38;69.89
14117;BME280;7137;51.436;6.544;2022-07-10T05:25:58;102185.09;;;17.28;70.25
14117;BME280;7137;51.436;6.544;2022-07-10T05:29:00;102188.53;;;17.32;71.94
14117;BME280;7137;51.436;6.544;2022-07-10T05:32:02;102183.38;;;17.27;70.94
14117;BME280;7137;51.436;6.544;2022-07-10T05:35:04;102188.25;;;17.14;70.37
14117;BME280;7137;51.436;6.544;2022-07-10T05:38:06;102185.22;;;17.00;69.98
14117;BME280;7137;51.436;6.544;2022-07-10T05:41:09;102199.44;;;16.96;71.85
14117;BME280;7137;51.436;6.544;2022-07-10T05:44:11;102192.22;;;16.76;73.55
14117;BME280;7137;51.436;6.544;2022-07-10T05:47:13;102193.56;;;16.88;73.91
14117;BME280;7137;51.436;6.544;2022-07-10T05:50:14;102194.66;;;17.07;73.35
14117;BME280;7137;51.436;6.544;2022-07-10T05:53:16;102189.09;;;17.15;71.17
14117;BME280;7137;51.436;6.544;2022-07-10T05:56:20;102198.38;;;17.27;72.23
14117;BME280;7137;51.436;6.544;2022-07-10T05:59:22;102198.50;;;17.24;70.80
14117;BME280;7137;51.436;6.544;2022-07-10T06:02:24;102194.75;;;17.29;71.25
14117;BME280;7137;51.436;6.544;2022-07-10T06:05:25;102199.28;;;17.01;71.91
14117;BME280;7137;51.436;6.544;2022-07-10T06:08:27;102202.59;;;17.07;70.84
14117;BME280;7137;51.436;6.544;2022-07-10T06:11:30;102197.06;;;16.88;72.78
14117;BME280;7137;51.436;6.544;2022-07-10T06:14:32;102200.66;;;16.86;72.23
14117;BME280;7137;51.436;6.544;2022-07-10T06:17:33;102207.78;;;16.84;72.60
14117;BME280;7137;51.436;6.544;2022-07-10T06:20:35;102211.84;;;16.68;73.91
14117;BME280;7137;51.436;6.544;2022-07-10T06:23:36;102198.34;;;16.77;73.87
14117;BME280;7137;51.436;6.544;2022-07-10T06:26:39;102205.06;;;17.12;74.02
14117;BME280;7137;51.436;6.544;2022-07-10T06:29:41;102192.88;;;17.33;70.61
14117;BME280;7137;51.436;6.544;2022-07-10T06:32:42;102194.38;;;17.40;70.59
14117;BME280;7137;51.436;6.544;2022-07-10T06:35:45;102188.53;;;17.55;70.93
14117;BME280;7137;51.436;6.544;2022-07-10T06:38:47;102193.47;;;17.41;70.19
14117;BME280;7137;51.436;6.544;2022-07-10T06:41:50;102198.38;;;17.51;71.12
14117;BME280;7137;51.436;6.544;2022-07-10T06:44:51;102192.56;;;17.65;69.19
14117;BME280;7137;51.436;6.544;2022-07-10T06:47:53;102211.28;;;17.84;69.06
14117;BME280;7137;51.436;6.544;2022-07-10T06:50:59;102203.19;;;18.10;69.97
14117;BME280;7137;51.436;6.544;2022-07-10T06:54:02;102203.31;;;18.31;66.54
14117;BME280;7137;51.436;6.544;2022-07-10T06:57:06;102202.66;;;17.79;68.39
14117;BME280;7137;51.436;6.544;2022-07-10T07:00:09;102205.63;;;17.70;69.47
14117;BME280;7137;51.436;6.544;2022-07-10T07:03:11;102203.41;;;17.83;69.81
14117;BME280;7137;51.436;6.544;2022-07-10T07:06:13;102206.09;;;17.81;69.75
14117;BME280;7137;51.436;6.544;2022-07-10T07:09:14;102207.63;;;17.88;68.67
14117;BME280;7137;51.436;6.544;2022-07-10T07:12:17;102212.13;;;17.85;69.09
14117;BME280;7137;51.436;6.544;2022-07-10T07:15:19;102210.22;;;18.12;68.44
14117;BME280;7137;51.436;6.544;2022-07-10T07:18:23;102204.00;;;18.13;67.53
14117;BME280;7137;51.436;6.544;2022-07-10T07:21:32;102205.31;;;18.24;68.01
14117;BME280;7137;51.436;6.544;2022-07-10T07:24:51;102214.69;;;18.33;67.97
14117;BME280;7137;51.436;6.544;2022-07-10T07:27:54;102206.47;;;18.39;67.81
14117;BME280;7137;51.436;6.544;2022-07-10T07:30:55;102203.53;;;18.68;66.15
14117;BME280;7137;51.436;6.544;2022-07-10T07:33:59;102212.25;;;19.13;64.95
14117;BME280;7137;51.436;6.544;2022-07-10T07:37:01;102213.00;;;19.16;63.06
14117;BME280;7137;51.436;6.544;2022-07-10T07:40:04;102205.56;;;18.84;65.25
14117;BME280;7137;51.436;6.544;2022-07-10T07:43:07;102211.59;;;18.87;63.98
14117;BME280;7137;51.436;6.544;2022-07-10T07:46:09;102217.31;;;18.33;66.32
14117;BME280;7137;51.436;6.544;2022-07-10T07:49:11;102213.31;;;18.23;67.41
14117;BME280;7137;51.436;6.544;2022-07-10T07:52:12;102213.34;;;18.45;67.53
14117;BME280;7137;51.436;6.544;2022-07-10T07:55:15;102215.00;;;18.69;65.99
14117;BME280;7137;51.436;6.544;2022-07-10T07:58:19;102215.38;;;19.02;64.06
14117;BME280;7137;51.436;6.544;2022-07-10T08:01:21;102213.94;;;19.15;65.52
14117;BME280;7137;51.436;6.544;2022-07-10T08:04:23;102216.63;;;18.93;64.50
14117;BME280;7137;51.436;6.544;2022-07-10T08:07:33;102211.97;;;18.78;65.33
14117;BME280;7137;51.436;6.544;2022-07-10T08:10:34;102213.84;;;18.76;65.91
14117;BME280;7137;51.436;6.544;2022-07-10T08:13:39;102219.28;;;18.72;64.28
14117;BME280;7137;51.436;6.544;2022-07-10T08:16:40;102213.88;;;18.53;65.60
14117;BME280;7137;51.436;6.544;2022-07-10T08:19:42;102209.94;;;18.63;66.91
14117;BME280;7137;51.436;6.544;2022-07-10T08:22:43;102220.66;;;18.60;66.71
14117;BME280;7137;51.436;6.544;2022-07-10T08:25:45;102219.38;;;18.70;66.32
14117;BME280;7137;51.436;6.544;2022-07-10T08:28:48;102215.84;;;18.69;66.97
14117;BME280;7137;51.436;6.544;2022-07-10T08:31:49;102215.28;;;18.39;67.71
14117;BME280;7137;51.436;6.544;2022-07-10T08:34:51;102214.97;;;18.25;68.47
14117;BME280;7137;51.436;6.544;2022-07-10T08:37:52;102219.84;;;18.36;68.68
14117;BME280;7137;51.436;6.544;2022-07-10T08:40:54;102217.69;;;18.00;69.19
14117;BME280;7137;51.436;6.544;2022-07-10T08:44:00;102213.84;;;17.62;71.36
14117;BME280;7137;51.436;6.544;2022-07-10T08:47:03;102214.16;;;17.78;73.10
14117;BME280;7137;51.436;6.544;2022-07-10T08:50:05;102218.00;;;17.69;75.74
14117;BME280;7137;51.436;6.544;2022-07-10T08:53:20;102218.06;;;17.66;77.21
14117;BME280;7137;51.436;6.544;2022-07-10T08:56:24;102221.19;;;17.03;80.90
14117;BME280;7137;51.436;6.544;2022-07-10T08:59:28;102221.19;;;17.04;85.06
14117;BME280;7137;51.436;6.544;2022-07-10T09:02:29;102211.38;;;17.33;85.47
14117;BME280;7137;51.436;6.544;2022-07-10T09:05:31;102214.03;;;17.33;85.02
14117;BME280;7137;51.436;6.544;2022-07-10T09:08:32;102213.50;;;16.97;86.21
14117;BME280;7137;51.436;6.544;2022-07-10T09:11:35;102217.94;;;17.21;88.19
14117;BME280;7137;51.436;6.544;2022-07-10T09:14:40;102218.91;;;17.68;85.68
14117;BME280;7137;51.436;6.544;2022-07-10T09:17:49;102216.31;;;18.14;85.13
14117;BME280;7137;51.436;6.544;2022-07-10T09:20:51;102221.16;;;17.79;86.03
14117;BME280;7137;51.436;6.544;2022-07-10T09:23:55;102213.56;;;18.17;83.66
14117;BME280;7137;51.436;6.544;2022-07-10T09:27:00;102218.94;;;18.59;82.37
14117;BME280;7137;51.436;6.544;2022-07-10T09:30:06;102213.38;;;18.21;82.97
14117;BME280;7137;51.436;6.544;2022-07-10T09:33:18;102208.66;;;18.73;82.52
14117;BME280;7137;51.436;6.544;2022-07-10T09:36:25;102206.69;;;19.39;81.22
14117;BME280;7137;51.436;6.544;2022-07-10T09:39:26;102205.06;;;19.57;78.57
14117;BME280;7137;51.436;6.544;2022-07-10T09:42:30;102185.91;;;20.07;78.22
14117;BME280;7137;51.436;6.544;2022-07-10T09:45:34;102196.34;;;21.01;73.51
14117;BME280;7137;51.436;6.544;2022-07-10T09:48:35;102194.03;;;21.45;69.59
14117;BME280;7137;51.436;6.544;2022-07-10T09:51:38;102199.16;;;21.81;68.75
14117;BME280;7137;51.436;6.544;2022-07-10T09:54:40;102184.81;;;20.66;72.03
14117;BME280;7137;51.436;6.544;2022-07-10T09:57:43;102200.53;;;19.59;73.71
14117;BME280;7137;51.436;6.544;2022-07-10T10:00:48;102197.00;;;19.38;76.12
14117;BME280;7137;51.436;6.544;2022-07-10T10:03:51;102207.22;;;19.27;75.70
14117;BME280;7137;51.436;6.544;2022-07-10T10:06:58;102188.44;;;19.52;76.34
14117;BME280;7137;51.436;6.544;2022-07-10T10:10:01;102187.13;;;19.42;74.70
14117;BME280;7137;51.436;6.544;2022-07-10T10:13:07;102187.09;;;20.91;69.32
14117;BME280;7137;51.436;6.544;2022-07-10T10:16:12;102182.59;;;21.92;64.29
14117;BME280;7137;51.436;6.544;2022-07-10T10:19:15;102176.03;;;22.61;60.51
14117;BME280;7137;51.436;6.544;2022-07-10T10:22:40;102158.66;;;25.05;53.98
14117;BME280;7137;51.436;6.544;2022-07-10T10:25:42;102165.16;;;22.79;59.16
14117;BME280;7137;51.436;6.544;2022-07-10T10:28:43;102170.69;;;21.99;63.32
14117;BME280;7137;51.436;6.544;2022-07-10T10:31:47;102170.06;;;21.12;66.14
14117;BME280;7137;51.436;6.544;2022-07-10T10:34:49;102172.31;;;20.68;68.00
14117;BME280;7137;51.436;6.544;2022-07-10T10:37:56;102167.09;;;20.30;68.87
14117;BME280;7137;51.436;6.544;2022-07-10T10:41:23;102169.97;;;20.44;69.44
14117;BME280;7137;51.436;6.544;2022-07-10T10:44:26;102173.69;;;19.85;69.18
14117;BME280;7137;51.436;6.544;2022-07-10T10:47:58;102173.31;;;19.74;70.45
14117;BME280;7137;51.436;6.544;2022-07-10T10:51:00;102180.69;;;19.28;70.71
14117;BME280;7137;51.436;6.544;2022-07-10T10:54:04;102168.78;;;19.37;71.25
14117;BME280;7137;51.436;6.544;2022-07-10T10:57:15;102165.59;;;19.49;71.87
14117;BME280;7137;51.436;6.544;2022-07-10T11:00:30;102166.44;;;19.50;71.26
14117;BME280;7137;51.436;6.544;2022-07-10T11:03:38;102166.94;;;19.78;70.74
14117;BME280;7137;51.436;6.544;2022-07-10T11:06:40;102165.44;;;19.73;69.69
14117;BME280;7137;51.436;6.544;2022-07-10T11:09:42;102168.81;;;19.76;69.25
14117;BME280;7137;51.436;6.544;2022-07-10T11:12:57;102149.00;;;19.83;70.22
14117;BME280;7137;51.436;6.544;2022-07-10T11:16:00;102153.09;;;21.32;66.11
14117;BME280;7137;51.436;6.544;2022-07-10T11:19:03;102149.66;;;21.30;64.28
14117;BME280;7137;51.436;6.544;2022-07-10T11:22:18;102148.88;;;20.93;64.67
14117;BME280;7137;51.436;6.544;2022-07-10T11:25:39;102156.69;;;20.26;66.68
14117;BME280;7137;51.436;6.544;2022-07-10T11:28:51;102152.59;;;19.82;69.24
14117;BME280;7137;51.436;6.544;2022-07-10T11:31:54;102144.13;;;19.55;70.39
14117;BME280;7137;51.436;6.544;2022-07-10T11:34:57;102153.00;;;19.54;71.83
14117;BME280;7137;51.436;6.544;2022-07-10T11:37:59;102158.56;;;19.30;71.01
14117;BME280;7137;51.436;6.544;2022-07-10T11:41:00;102149.31;;;19.38;70.89
14117;BME280;7137;51.436;6.544;2022-07-10T11:44:03;102137.75;;;19.78;69.65
14117;BME280;7137;51.436;6.544;2022-07-10T11:47:05;102141.56;;;19.73;69.32
14117;BME280;7137;51.436;6.544;2022-07-10T11:50:09;102138.06;;;19.72;69.18
14117;BME280;7137;51.436;6.544;2022-07-10T11:53:21;102139.03;;;20.07;69.60
14117;BME280;7137;51.436;6.544;2022-07-10T11:56:23;102138.94;;;20.28;68.67
14117;BME280;7137;51.436;6.544;2022-07-10T11:59:26;102135.91;;;19.99;68.26
14117;BME280;7137;51.436;6.544;2022-07-10T12:02:28;102138.44;;;20.73;67.00
14117;BME280;7137;51.436;6.544;2022-07-10T12:05:32;102131.66;;;20.85;65.30
14117;BME280;7137;51.436;6.544;2022-07-10T12:08:44;102138.47;;;21.06;64.95
14117;BME280;7137;51.436;6.544;2022-07-10T12:11:58;102142.09;;;20.88;66.17
14117;BME280;7137;51.436;6.544;2022-07-10T12:14:59;102139.16;;;21.60;64.37
14117;BME280;7137;51.436;6.544;2022-07-10T12:18:01;102141.03;;;22.37;61.47
14117;BME280;7137;51.436;6.544;2022-07-10T12:21:05;102144.41;;;23.29;58.87
14117;BME280;7137;51.436;6.544;2022-07-10T12:24:08;102137.03;;;23.89;56.90
14117;BME280;7137;51.436;6.544;2022-07-10T12:27:09;102145.47;;;24.10;55.40
14117;BME280;7137;51.436;6.544;2022-07-10T12:30:12;102138.97;;;24.14;54.06
14117;BME280;7137;51.436;6.544;2022-07-10T12:33:15;102140.66;;;24.30;53.98
14117;BME280;7137;51.436;6.544;2022-07-10T12:36:18;102139.53;;;23.07;57.01
14117;BME280;7137;51.436;6.544;2022-07-10T12:39:21;102138.75;;;21.83;58.42
14117;BME280;7137;51.436;6.544;2022-07-10T12:42:27;102132.03;;;21.60;59.34
14117;BME280;7137;51.436;6.544;2022-07-10T12:45:29;102130.81;;;21.17;61.83
14117;BME280;7137;51.436;6.544;2022-07-10T12:48:31;102128.34;;;21.47;61.99
14117;BME280;7137;51.436;6.544;2022-07-10T12:51:42;102134.28;;;21.84;59.79
14117;BME280;7137;51.436;6.544;2022-07-10T12:54:44;102125.81;;;22.55;58.42
14117;BME280;7137;51.436;6.544;2022-07-10T12:57:47;102119.16;;;22.32;58.66
14117;BME280;7137;51.436;6.544;2022-07-10T13:00:49;102106.53;;;22.04;57.86
14117;BME280;7137;51.436;6.544;2022-07-10T13:04:00;102114.97;;;21.96;58.60
14117;BME280;7137;51.436;6.544;2022-07-10T13:07:13;102110.84;;;22.06;58.44
14117;BME280;7137;51.436;6.544;2022-07-10T13:10:15;102118.66;;;21.93;59.10
14117;BME280;7137;51.436;6.544;2022-07-10T13:13:17;102102.75;;;22.23;59.08
14117;BME280;7137;51.436;6.544;2022-07-10T13:16:18;102103.47;;;22.71;56.90
14117;BME280;7137;51.436;6.544;2022-07-10T13:19:20;102100.59;;;23.19;54.84
14117;BME280;7137;51.436;6.544;2022-07-10T13:22:23;102099.53;;;24.18;51.77
14117;BME280;7137;51.436;6.544;2022-07-10T13:25:24;102105.56;;;23.94;52.22
14117;BME280;7137;51.436;6.544;2022-07-10T13:28:26;102110.13;;;23.65;52.59
14117;BME280;7137;51.436;6.544;2022-07-10T13:31:28;102101.44;;;23.48;53.18
14117;BME280;7137;51.436;6.544;2022-07-10T13:34:30;102104.22;;;23.18;53.59
14117;BME280;7137;51.436;6.544;2022-07-10T13:37:32;102104.00;;;23.06;53.47
14117;BME280;7137;51.436;6.544;2022-07-10T13:40:35;102091.28;;;23.26;52.87
14117;BME280;7137;51.436;6.544;2022-07-10T13:43:37;102101.44;;;23.33;52.68
14117;BME280;7137;51.436;6.544;2022-07-10T13:46:39;102091.94;;;23.01;53.59
14117;BME280;7137;51.436;6.544;2022-07-10T13:49:40;102084.94;;;22.70;54.79
14117;BME280;7137;51.436;6.544;2022-07-10T13:52:43;102094.91;;;22.36;54.87
14117;BME280;7137;51.436;6.544;2022-07-10T13:55:45;102087.34;;;21.83;56.60
14117;BME280;7137;51.436;6.544;2022-07-10T13:58:47;102080.31;;;21.82;56.53
14117;BME280;7137;51.436;6.544;2022-07-10T14:01:49;102085.78;;;21.79;57.64
14117;BME280;7137;51.436;6.544;2022-07-10T14:04:50;102100.03;;;21.78;57.98
14117;BME280;7137;51.436;6.544;2022-07-10T14:07:53;102089.41;;;21.62;58.90
14117;BME280;7137;51.436;6.544;2022-07-10T14:10:56;102092.38;;;22.19;57.16
14117;BME280;7137;51.436;6.544;2022-07-10T14:13:57;102090.56;;;22.19;57.17
14117;BME280;7137;51.436;6.544;2022-07-10T14:16:59;102086.06;;;22.80;56.41
14117;BME280;7137;51.436;6.544;2022-07-10T14:20:00;102087.06;;;23.22;55.95
14117;BME280;7137;51.436;6.544;2022-07-10T14:23:03;102092.78;;;23.58;54.73
14117;BME280;7137;51.436;6.544;2022-07-10T14:26:05;102096.50;;;22.99;54.97
14117;BME280;7137;51.436;6.544;2022-07-10T14:29:07;102093.81;;;22.85;55.63
14117;BME280;7137;51.436;6.544;2022-07-10T14:32:09;102087.28;;;22.60;56.21
14117;BME280;7137;51.436;6.544;2022-07-10T14:35:10;102089.09;;;22.74;55.30
14117;BME280;7137;51.436;6.544;2022-07-10T14:38:13;102094.53;;;22.72;56.18
14117;BME280;7137;51.436;6.544;2022-07-10T14:41:15;102093.88;;;22.69;56.43
14117;BME280;7137;51.436;6.544;2022-07-10T14:44:16;102085.66;;;22.58;57.02
14117;BME280;7137;51.436;6.544;2022-07-10T14:47:18;102082.16;;;22.71;56.61
14117;BME280;7137;51.436;6.544;2022-07-10T14:50:19;102078.03;;;22.66;56.22
14117;BME280;7137;51.436;6.544;2022-07-10T14:53:22;102083.31;;;22.81;56.25
14117;BME280;7137;51.436;6.544;2022-07-10T14:56:24;102079.38;;;22.59;56.16
14117;BME280;7137;51.436;6.544;2022-07-10T14:59:25;102072.16;;;22.75;56.81
14117;BME280;7137;51.436;6.544;2022-07-10T15:02:27;102075.94;;;23.01;55.85
14117;BME280;7137;51.436;6.544;2022-07-10T15:05:28;102078.91;;;22.96;54.68
14117;BME280;7137;51.436;6.544;2022-07-10T15:08:31;102076.78;;;23.01;55.46
14117;BME280;7137;51.436;6.544;2022-07-10T15:11:34;102074.88;;;23.18;54.13
14117;BME280;7137;51.436;6.544;2022-07-10T15:14:36;102069.19;;;23.09;53.51
14117;BME280;7137;51.436;6.544;2022-07-10T15:17:37;102063.78;;;22.52;55.84
14117;BME280;7137;51.436;6.544;2022-07-10T15:20:39;102064.66;;;22.37;57.16
14117;BME280;7137;51.436;6.544;2022-07-10T15:23:42;102058.59;;;22.94;55.95
14117;BME280;7137;51.436;6.544;2022-07-10T15:26:43;102052.03;;;23.28;55.76
14117;BME280;7137;51.436;6.544;2022-07-10T15:29:45;102042.50;;;23.24;55.48
14117;BME280;7137;51.436;6.544;2022-07-10T15:32:47;102046.63;;;23.56;54.69
14117;BME280;7137;51.436;6.544;2022-07-10T15:35:49;102048.91;;;23.62;53.87
14117;BME280;7137;51.436;6.544;2022-07-10T15:38:52;102039.25;;;23.19;54.92
14117;BME280;7137;51.436;6.544;2022-07-10T15:41:53;102043.09;;;23.00;54.85
14117;BME280;7137;51.436;6.544;2022-07-10T15:44:55;102034.88;;;22.75;55.51
14117;BME280;7137;51.436;6.544;2022-07-10T15:47:56;102035.13;;;22.42;57.04
14117;BME280;7137;51.436;6.544;2022-07-10T15:50:58;102028.94;;;22.56;57.32
14117;BME280;7137;51.436;6.544;2022-07-10T15:54:01;102033.66;;;22.80;56.90
14117;BME280;7137;51.436;6.544;2022-07-10T15:57:03;102019.16;;;22.56;56.45
14117;BME280;7137;51.436;6.544;2022-07-10T16:00:06;102025.84;;;22.92;55.43
14117;BME280;7137;51.436;6.544;2022-07-10T16:03:08;102024.63;;;22.97;54.36
14117;BME280;7137;51.436;6.544;2022-07-10T16:06:10;102025.09;;;22.90;55.54
14117;BME280;7137;51.436;6.544;2022-07-10T16:09:13;102032.69;;;22.67;55.18